sensor_id;sensor_type;location;lat;lon;timestamp;P1;durP1;ratioP1;P2;durP2;ratioP2
42586;SDS011;28216;53.362;-6.288;2023-03-03T00:02:06;28.02;;;16.08;;
42586;SDS011;28216;53.362;-6.288;2023-03-03T00:04:31;40.35;;;24.73;;
42586;SDS011;28216;53.362;-6.288;2023-03-03T00:06:57;4.85;;;3.50;;
42586;SDS011;28216;53.362;-6.288;2023-03-03T00:09:22;61.90;;;36.75;;
42586;SDS011;28216;53.362;-6.288;2023-03-03T00:11:49;38.80;;;22.67;;
42586;SDS011;28216;53.362;-6.288;2023-03-03T00:14:24;61.72;;;38.67;;
42586;SDS011;28216;53.362;-6.288;2023-03-03T00:16:54;99.30;;;56.05;;
42586;SDS011;28216;53.362;-6.288;2023-03-03T00:19:21;77.70;;;46.10;;
42586;SDS011;28216;53.362;-6.288;2023-03-03T00:21:50;137.15;;;84.47;;
42586;SDS011;28216;53.362;-6.288;2023-03-03T00:24:24;75.63;;;44.63;;
42586;SDS011;28216;53.362;-6.288;2023-03-03T00:26:54;105.97;;;62.20;;
42586;SDS011;28216;53.362;-6.288;2023-03-03T00:31:59;40.28;;;24.38;;
42586;SDS011;28216;53.362;-6.288;2023-03-03T00:34:31;97.97;;;56.78;;
42586;SDS011;28216;53.362;-6.288;2023-03-03T00:36:58;50.63;;;29.70;;
42586;SDS011;28216;53.362;-6.288;2023-03-03T00:39:30;50.38;;;29.55;;
42586;SDS011;28216;53.362;-6.288;2023-03-03T00:41:59;40.20;;;24.05;;
42586;SDS011;28216;53.362;-6.288;2023-03-03T00:47:24;58.70;;;35.42;;
42586;SDS011;28216;53.362;-6.288;2023-03-03T00:49:50;125.65;;;79.95;;
42586;SDS011;28216;53.362;-6.288;2023-03-03T00:52:17;71.78;;;48.00;;
42586;SDS011;28216;53.362;-6.288;2023-03-03T00:54:43;29.63;;;19.13;;
42586;SDS011;28216;53.362;-6.288;2023-03-03T00:57:10;7.03;;;3.92;;
42586;SDS011;28216;53.362;-6.288;2023-03-03T00:59:37;60.58;;;42.45;;
42586;SDS011;28216;53.362;-6.288;2023-03-03T01:02:03;8.10;;;5.82;;
42586;SDS011;28216;53.362;-6.288;2023-03-03T01:04:29;3.58;;;2.35;;
42586;SDS011;28216;53.362;-6.288;2023-03-03T01:06:54;4.20;;;1.90;;
42586;SDS011;28216;53.362;-6.288;2023-03-03T01:09:20;10.07;;;5.53;;
42586;SDS011;28216;53.362;-6.288;2023-03-03T01:11:46;4.38;;;2.85;;
42586;SDS011;28216;53.362;-6.288;2023-03-03T01:14:11;6.50;;;3.08;;
42586;SDS011;28216;53.362;-6.288;2023-03-03T01:16:37;7.15;;;3.70;;
42586;SDS011;28216;53.362;-6.288;2023-03-03T01:19:02;4.60;;;2.25;;
42586;SDS011;28216;53.362;-6.288;2023-03-03T01:21:28;15.90;;;8.88;;
42586;SDS011;28216;53.362;-6.288;2023-03-03T01:23:53;8.95;;;5.70;;
42586;SDS011;28216;53.362;-6.288;2023-03-03T01:26:18;7.85;;;2.92;;
42586;SDS011;28216;53.362;-6.288;2023-03-03T01:28:44;5.50;;;2.45;;
42586;SDS011;28216;53.362;-6.288;2023-03-03T01:31:09;2.63;;;1.50;;
42586;SDS011;28216;53.362;-6.288;2023-03-03T01:33:36;4.15;;;1.95;;
42586;SDS011;28216;53.362;-6.288;2023-03-03T01:36:02;4.50;;;1.45;;
42586;SDS011;28216;53.362;-6.288;2023-03-03T01:38:28;2.10;;;1.88;;
42586;SDS011;28216;53.362;-6.288;2023-03-03T01:40:57;1.85;;;1.15;;
42586;SDS011;28216;53.362;-6.288;2023-03-03T01:43:31;2.55;;;1.20;;
42586;SDS011;28216;53.362;-6.288;2023-03-03T01:48:33;2.13;;;1.42;;
42586;SDS011;28216;53.362;-6.288;2023-03-03T01:51:14;5.75;;;3.17;;
42586;SDS011;28216;53.362;-6.288;2023-03-03T01:56:23;4.20;;;1.40;;
42586;SDS011;28216;53.362;-6.288;2023-03-03T01:59:06;5.95;;;1.60;;
42586;SDS011;28216;53.362;-6.288;2023-03-03T02:01:38;2.92;;;1.40;;
42586;SDS011;28216;53.362;-6.288;2023-03-03T02:04:05;2.38;;;1.35;;
42586;SDS011;28216;53.362;-6.288;2023-03-03T02:06:34;3.92;;;1.30;;
42586;SDS011;28216;53.362;-6.288;2023-03-03T02:11:35;1.65;;;1.15;;
42586;SDS011;28216;53.362;-6.288;2023-03-03T02:14:02;1.85;;;1.13;;
42586;SDS011;28216;53.362;-6.288;2023-03-03T02:16:28;3.97;;;1.35;;
42586;SDS011;28216;53.362;-6.288;2023-03-03T02:18:54;2.35;;;1.60;;
42586;SDS011;28216;53.362;-6.288;2023-03-03T02:21:20;1.58;;;1.45;;
42586;SDS011;28216;53.362;-6.288;2023-03-03T02:24:00;2.50;;;1.75;;
42586;SDS011;28216;53.362;-6.288;2023-03-03T02:26:33;2.45;;;1.70;;
42586;SDS011;28216;53.362;-6.288;2023-03-03T02:29:03;3.33;;;1.60;;
42586;SDS011;28216;53.362;-6.288;2023-03-03T02:31:29;3.75;;;1.80;;
42586;SDS011;28216;53.362;-6.288;2023-03-03T02:33:55;2.40;;;1.50;;
42586;SDS011;28216;53.362;-6.288;2023-03-03T02:36:22;2.80;;;1.70;;
42586;SDS011;28216;53.362;-6.288;2023-03-03T02:41:44;2.70;;;1.70;;
42586;SDS011;28216;53.362;-6.288;2023-03-03T02:44:16;2.25;;;1.40;;
42586;SDS011;28216;53.362;-6.288;2023-03-03T02:46:44;2.45;;;1.38;;
42586;SDS011;28216;53.362;-6.288;2023-03-03T02:49:13;4.35;;;1.60;;
42586;SDS011;28216;53.362;-6.288;2023-03-03T02:51:41;2.20;;;1.40;;
42586;SDS011;28216;53.362;-6.288;2023-03-03T02:54:07;2.67;;;1.40;;
42586;SDS011;28216;53.362;-6.288;2023-03-03T02:56:34;3.33;;;1.48;;
42586;SDS011;28216;53.362;-6.288;2023-03-03T02:58:59;2.17;;;1.30;;
42586;SDS011;28216;53.362;-6.288;2023-03-03T03:01:25;4.20;;;1.70;;
42586;SDS011;28216;53.362;-6.288;2023-03-03T03:03:50;2.47;;;1.48;;
42586;SDS011;28216;53.362;-6.288;2023-03-03T03:06:16;4.35;;;1.90;;
42586;SDS011;28216;53.362;-6.288;2023-03-03T03:08:41;5.13;;;1.92;;
42586;SDS011;28216;53.362;-6.288;2023-03-03T03:11:07;3.00;;;1.83;;
42586;SDS011;28216;53.362;-6.288;2023-03-03T03:13:33;3.72;;;1.75;;
42586;SDS011;28216;53.362;-6.288;2023-03-03T03:15:59;2.83;;;1.65;;
42586;SDS011;28216;53.362;-6.288;2023-03-03T03:18:25;3.88;;;1.55;;
42586;SDS011;28216;53.362;-6.288;2023-03-03T03:20:52;2.13;;;1.77;;
42586;SDS011;28216;53.362;-6.288;2023-03-03T03:23:17;4.80;;;1.80;;
42586;SDS011;28216;53.362;-6.288;2023-03-03T03:25:43;3.25;;;1.75;;
42586;SDS011;28216;53.362;-6.288;2023-03-03T03:28:12;3.83;;;1.50;;
42586;SDS011;28216;53.362;-6.288;2023-03-03T03:30:39;6.18;;;1.70;;
42586;SDS011;28216;53.362;-6.288;2023-03-03T03:33:05;4.03;;;1.80;;
42586;SDS011;28216;53.362;-6.288;2023-03-03T03:35:32;2.10;;;1.50;;
42586;SDS011;28216;53.362;-6.288;2023-03-03T03:37:59;3.35;;;1.48;;
42586;SDS011;28216;53.362;-6.288;2023-03-03T03:40:25;2.92;;;1.70;;
42586;SDS011;28216;53.362;-6.288;2023-03-03T03:42:51;2.80;;;1.75;;
42586;SDS011;28216;53.362;-6.288;2023-03-03T03:45:17;4.63;;;1.92;;
42586;SDS011;28216;53.362;-6.288;2023-03-03T03:47:43;5.93;;;2.13;;
42586;SDS011;28216;53.362;-6.288;2023-03-03T03:50:09;2.90;;;1.90;;
42586;SDS011;28216;53.362;-6.288;2023-03-03T03:52:35;2.78;;;2.00;;
42586;SDS011;28216;53.362;-6.288;2023-03-03T03:55:01;4.35;;;1.88;;
42586;SDS011;28216;53.362;-6.288;2023-03-03T03:57:26;3.70;;;1.80;;
42586;SDS011;28216;53.362;-6.288;2023-03-03T03:59:52;4.32;;;2.03;;
42586;SDS011;28216;53.362;-6.288;2023-03-03T04:02:17;2.67;;;1.65;;
42586;SDS011;28216;53.362;-6.288;2023-03-03T04:04:43;2.85;;;1.63;;
42586;SDS011;28216;53.362;-6.288;2023-03-03T04:07:08;1.88;;;1.50;;
42586;SDS011;28216;53.362;-6.288;2023-03-03T04:09:34;2.78;;;1.67;;
42586;SDS011;28216;53.362;-6.288;2023-03-03T04:11:59;3.15;;;1.55;;
42586;SDS011;28216;53.362;-6.288;2023-03-03T04:14:25;3.08;;;1.77;;
42586;SDS011;28216;53.362;-6.288;2023-03-03T04:16:50;4.15;;;1.80;;
42586;SDS011;28216;53.362;-6.288;2023-03-03T04:19:16;2.42;;;1.73;;
42586;SDS011;28216;53.362;-6.288;2023-03-03T04:21:42;2.70;;;1.88;;
42586;SDS011;28216;53.362;-6.288;2023-03-03T04:24:07;3.40;;;2.10;;
42586;SDS011;28216;53.362;-6.288;2023-03-03T04:26:33;2.72;;;2.13;;
42586;SDS011;28216;53.362;-6.288;2023-03-03T04:28:58;4.13;;;2.10;;
42586;SDS011;28216;53.362;-6.288;2023-03-03T04:31:25;3.08;;;1.98;;
42586;SDS011;28216;53.362;-6.288;2023-03-03T04:33:51;4.07;;;2.10;;
42586;SDS011;28216;53.362;-6.288;2023-03-03T04:36:17;4.18;;;2.47;;
42586;SDS011;28216;53.362;-6.288;2023-03-03T04:38:44;6.05;;;2.28;;
42586;SDS011;28216;53.362;-6.288;2023-03-03T04:41:09;3.10;;;2.33;;
42586;SDS011;28216;53.362;-6.288;2023-03-03T04:43:35;5.03;;;2.30;;
42586;SDS011;28216;53.362;-6.288;2023-03-03T04:46:00;3.95;;;2.30;;
42586;SDS011;28216;53.362;-6.288;2023-03-03T04:48:26;5.30;;;2.47;;
42586;SDS011;28216;53.362;-6.288;2023-03-03T04:50:52;4.60;;;2.65;;
42586;SDS011;28216;53.362;-6.288;2023-03-03T04:53:17;3.75;;;2.05;;
42586;SDS011;28216;53.362;-6.288;2023-03-03T04:55:43;5.10;;;2.20;;
42586;SDS011;28216;53.362;-6.288;2023-03-03T04:58:08;3.53;;;2.10;;
42586;SDS011;28216;53.362;-6.288;2023-03-03T05:00:35;5.85;;;2.50;;
42586;SDS011;28216;53.362;-6.288;2023-03-03T05:03:00;4.68;;;2.30;;
42586;SDS011;28216;53.362;-6.288;2023-03-03T05:05:26;3.83;;;2.28;;
42586;SDS011;28216;53.362;-6.288;2023-03-03T05:07:52;4.43;;;2.35;;
42586;SDS011;28216;53.362;-6.288;2023-03-03T05:10:17;3.58;;;2.33;;
42586;SDS011;28216;53.362;-6.288;2023-03-03T05:12:43;3.65;;;2.40;;
42586;SDS011;28216;53.362;-6.288;2023-03-03T05:15:09;3.72;;;2.20;;
42586;SDS011;28216;53.362;-6.288;2023-03-03T05:17:35;3.70;;;2.50;;
42586;SDS011;28216;53.362;-6.288;2023-03-03T05:20:01;4.75;;;2.60;;
42586;SDS011;28216;53.362;-6.288;2023-03-03T05:22:26;4.22;;;2.47;;
42586;SDS011;28216;53.362;-6.288;2023-03-03T05:24:52;3.78;;;2.70;;
42586;SDS011;28216;53.362;-6.288;2023-03-03T05:27:18;4.57;;;3.17;;
42586;SDS011;28216;53.362;-6.288;2023-03-03T05:29:44;4.85;;;2.88;;
42586;SDS011;28216;53.362;-6.288;2023-03-03T05:32:09;4.63;;;3.22;;
42586;SDS011;28216;53.362;-6.288;2023-03-03T05:34:35;4.85;;;3.03;;
42586;SDS011;28216;53.362;-6.288;2023-03-03T05:37:00;5.07;;;3.03;;
42586;SDS011;28216;53.362;-6.288;2023-03-03T05:39:27;7.38;;;3.63;;
42586;SDS011;28216;53.362;-6.288;2023-03-03T05:41:53;6.40;;;3.95;;
42586;SDS011;28216;53.362;-6.288;2023-03-03T05:44:19;6.50;;;3.35;;
42586;SDS011;28216;53.362;-6.288;2023-03-03T05:46:45;6.28;;;3.85;;
42586;SDS011;28216;53.362;-6.288;2023-03-03T05:49:10;6.50;;;3.70;;
42586;SDS011;28216;53.362;-6.288;2023-03-03T05:51:36;7.95;;;4.00;;
42586;SDS011;28216;53.362;-6.288;2023-03-03T05:54:02;6.75;;;3.70;;
42586;SDS011;28216;53.362;-6.288;2023-03-03T05:56:27;12.18;;;3.65;;
42586;SDS011;28216;53.362;-6.288;2023-03-03T05:58:53;6.25;;;3.63;;
42586;SDS011;28216;53.362;-6.288;2023-03-03T06:01:18;5.93;;;3.78;;
42586;SDS011;28216;53.362;-6.288;2023-03-03T06:03:44;5.65;;;3.55;;
42586;SDS011;28216;53.362;-6.288;2023-03-03T06:06:10;9.07;;;3.53;;
42586;SDS011;28216;53.362;-6.288;2023-03-03T06:08:36;8.15;;;3.50;;
42586;SDS011;28216;53.362;-6.288;2023-03-03T06:11:01;5.72;;;3.40;;
42586;SDS011;28216;53.362;-6.288;2023-03-03T06:13:27;6.38;;;3.47;;
42586;SDS011;28216;53.362;-6.288;2023-03-03T06:15:52;7.95;;;3.47;;
42586;SDS011;28216;53.362;-6.288;2023-03-03T06:18:18;6.03;;;3.33;;
42586;SDS011;28216;53.362;-6.288;2023-03-03T06:20:43;6.50;;;3.50;;
42586;SDS011;28216;53.362;-6.288;2023-03-03T06:23:09;4.47;;;3.75;;
42586;SDS011;28216;53.362;-6.288;2023-03-03T06:25:34;5.95;;;3.40;;
42586;SDS011;28216;53.362;-6.288;2023-03-03T06:28:00;4.63;;;3.80;;
42586;SDS011;28216;53.362;-6.288;2023-03-03T06:30:26;5.72;;;3.70;;
42586;SDS011;28216;53.362;-6.288;2023-03-03T06:32:52;6.45;;;3.70;;
42586;SDS011;28216;53.362;-6.288;2023-03-03T06:35:18;6.32;;;3.88;;
42586;SDS011;28216;53.362;-6.288;2023-03-03T06:37:44;6.75;;;4.00;;
42586;SDS011;28216;53.362;-6.288;2023-03-03T06:40:10;10.25;;;4.25;;
42586;SDS011;28216;53.362;-6.288;2023-03-03T06:42:36;6.28;;;4.35;;
42586;SDS011;28216;53.362;-6.288;2023-03-03T06:45:01;7.70;;;4.35;;
42586;SDS011;28216;53.362;-6.288;2023-03-03T06:47:26;8.57;;;4.75;;
42586;SDS011;28216;53.362;-6.288;2023-03-03T06:49:52;9.65;;;4.72;;
42586;SDS011;28216;53.362;-6.288;2023-03-03T06:52:19;8.55;;;4.47;;
42586;SDS011;28216;53.362;-6.288;2023-03-03T06:54:48;6.20;;;4.30;;
42586;SDS011;28216;53.362;-6.288;2023-03-03T06:57:15;6.05;;;4.38;;
42586;SDS011;28216;53.362;-6.288;2023-03-03T06:59:51;9.65;;;5.10;;
42586;SDS011;28216;53.362;-6.288;2023-03-03T07:02:18;6.43;;;5.07;;
42586;SDS011;28216;53.362;-6.288;2023-03-03T07:04:45;9.25;;;4.82;;
42586;SDS011;28216;53.362;-6.288;2023-03-03T07:07:17;6.38;;;4.78;;
42586;SDS011;28216;53.362;-6.288;2023-03-03T07:09:45;8.38;;;4.70;;
42586;SDS011;28216;53.362;-6.288;2023-03-03T07:12:17;9.43;;;4.50;;
42586;SDS011;28216;53.362;-6.288;2023-03-03T07:14:46;7.75;;;4.63;;
42586;SDS011;28216;53.362;-6.288;2023-03-03T07:17:18;9.27;;;4.55;;
42586;SDS011;28216;53.362;-6.288;2023-03-03T07:19:45;9.18;;;4.70;;
42586;SDS011;28216;53.362;-6.288;2023-03-03T07:24:42;8.75;;;4.47;;
42586;SDS011;28216;53.362;-6.288;2023-03-03T07:29:38;7.10;;;4.50;;
42586;SDS011;28216;53.362;-6.288;2023-03-03T07:32:21;5.78;;;4.45;;
42586;SDS011;28216;53.362;-6.288;2023-03-03T07:34:51;8.23;;;4.80;;
42586;SDS011;28216;53.362;-6.288;2023-03-03T07:37:35;8.32;;;5.45;;
42586;SDS011;28216;53.362;-6.288;2023-03-03T07:40:23;7.05;;;4.88;;
42586;SDS011;28216;53.362;-6.288;2023-03-03T07:43:00;8.90;;;5.00;;
42586;SDS011;28216;53.362;-6.288;2023-03-03T07:45:40;6.78;;;4.55;;
42586;SDS011;28216;53.362;-6.288;2023-03-03T07:50:50;7.82;;;4.40;;
42586;SDS011;28216;53.362;-6.288;2023-03-03T07:55:53;6.78;;;4.70;;
42586;SDS011;28216;53.362;-6.288;2023-03-03T07:58:23;6.32;;;4.18;;
42586;SDS011;28216;53.362;-6.288;2023-03-03T08:06:48;5.07;;;3.15;;
42586;SDS011;28216;53.362;-6.288;2023-03-03T08:14:35;6.00;;;3.83;;
42586;SDS011;28216;53.362;-6.288;2023-03-03T08:17:22;6.50;;;4.32;;
42586;SDS011;28216;53.362;-6.288;2023-03-03T08:19:49;11.13;;;5.38;;
42586;SDS011;28216;53.362;-6.288;2023-03-03T08:22:17;11.02;;;6.40;;
42586;SDS011;28216;53.362;-6.288;2023-03-03T08:24:49;5.30;;;4.20;;
42586;SDS011;28216;53.362;-6.288;2023-03-03T08:27:14;6.45;;;4.55;;
42586;SDS011;28216;53.362;-6.288;2023-03-03T08:29:40;6.15;;;4.30;;
42586;SDS011;28216;53.362;-6.288;2023-03-03T08:32:05;10.77;;;4.60;;
42586;SDS011;28216;53.362;-6.288;2023-03-03T08:34:30;8.60;;;4.80;;
42586;SDS011;28216;53.362;-6.288;2023-03-03T08:36:56;8.25;;;4.75;;
42586;SDS011;28216;53.362;-6.288;2023-03-03T08:39:22;8.60;;;4.68;;
42586;SDS011;28216;53.362;-6.288;2023-03-03T08:41:48;5.60;;;4.45;;
42586;SDS011;28216;53.362;-6.288;2023-03-03T08:44:14;8.10;;;4.78;;
42586;SDS011;28216;53.362;-6.288;2023-03-03T08:46:39;14.65;;;5.88;;
42586;SDS011;28216;53.362;-6.288;2023-03-03T08:49:05;6.25;;;4.50;;
42586;SDS011;28216;53.362;-6.288;2023-03-03T08:51:30;8.13;;;4.68;;
42586;SDS011;28216;53.362;-6.288;2023-03-03T08:53:58;8.77;;;4.78;;
42586;SDS011;28216;53.362;-6.288;2023-03-03T08:56:23;6.90;;;4.95;;
42586;SDS011;28216;53.362;-6.288;2023-03-03T08:58:49;10.23;;;6.15;;
42586;SDS011;28216;53.362;-6.288;2023-03-03T09:01:14;6.13;;;5.40;;
42586;SDS011;28216;53.362;-6.288;2023-03-03T09:03:43;8.82;;;5.72;;
42586;SDS011;28216;53.362;-6.288;2023-03-03T09:06:09;7.20;;;5.20;;
42586;SDS011;28216;53.362;-6.288;2023-03-03T09:08:34;8.25;;;4.78;;
42586;SDS011;28216;53.362;-6.288;2023-03-03T09:11:00;8.18;;;4.40;;
42586;SDS011;28216;53.362;-6.288;2023-03-03T09:13:27;10.27;;;4.75;;
42586;SDS011;28216;53.362;-6.288;2023-03-03T09:15:54;6.65;;;4.97;;
42586;SDS011;28216;53.362;-6.288;2023-03-03T09:18:28;6.90;;;4.53;;
42586;SDS011;28216;53.362;-6.288;2023-03-03T09:20:56;8.15;;;5.03;;
42586;SDS011;28216;53.362;-6.288;2023-03-03T09:23:37;5.88;;;4.40;;
42586;SDS011;28216;53.362;-6.288;2023-03-03T09:28:46;6.57;;;3.60;;
42586;SDS011;28216;53.362;-6.288;2023-03-03T09:31:19;7.03;;;4.00;;
42586;SDS011;28216;53.362;-6.288;2023-03-03T09:34:18;7.65;;;3.95;;
42586;SDS011;28216;53.362;-6.288;2023-03-03T09:36:48;5.20;;;3.83;;
42586;SDS011;28216;53.362;-6.288;2023-03-03T09:39:24;8.80;;;4.07;;
42586;SDS011;28216;53.362;-6.288;2023-03-03T09:41:58;6.05;;;3.72;;
42586;SDS011;28216;53.362;-6.288;2023-03-03T09:47:10;6.68;;;3.53;;
42586;SDS011;28216;53.362;-6.288;2023-03-03T09:55:47;6.07;;;4.30;;
42586;SDS011;28216;53.362;-6.288;2023-03-03T10:12:32;4.43;;;0.90;;
42586;SDS011;28216;53.362;-6.288;2023-03-03T10:17:51;2.70;;;1.02;;
42586;SDS011;28216;53.362;-6.288;2023-03-03T10:20:23;5.57;;;0.95;;
42586;SDS011;28216;53.362;-6.288;2023-03-03T10:36:52;5.05;;;1.40;;
42586;SDS011;28216;53.362;-6.288;2023-03-03T10:58:11;2.55;;;1.20;;
42586;SDS011;28216;53.362;-6.288;2023-03-03T11:00:48;4.38;;;1.40;;
42586;SDS011;28216;53.362;-6.288;2023-03-03T11:16:54;1.23;;;0.80;;
42586;SDS011;28216;53.362;-6.288;2023-03-03T11:27:19;2.35;;;1.00;;
42586;SDS011;28216;53.362;-6.288;2023-03-03T11:38:18;3.22;;;1.60;;
42586;SDS011;28216;53.362;-6.288;2023-03-03T11:41:00;3.72;;;1.70;;
42586;SDS011;28216;53.362;-6.288;2023-03-03T11:43:43;4.10;;;1.35;;
42586;SDS011;28216;53.362;-6.288;2023-03-03T11:46:15;2.80;;;1.42;;
42586;SDS011;28216;53.362;-6.288;2023-03-03T11:51:19;6.38;;;1.90;;
42586;SDS011;28216;53.362;-6.288;2023-03-03T11:53:57;3.63;;;1.70;;
42586;SDS011;28216;53.362;-6.288;2023-03-03T12:02:11;5.65;;;2.20;;
42586;SDS011;28216;53.362;-6.288;2023-03-03T12:04:39;3.40;;;2.10;;
42586;SDS011;28216;53.362;-6.288;2023-03-03T12:12:43;5.30;;;2.80;;
42586;SDS011;28216;53.362;-6.288;2023-03-03T12:18:03;4.95;;;2.60;;
42586;SDS011;28216;53.362;-6.288;2023-03-03T12:28:49;4.32;;;2.03;;
42586;SDS011;28216;53.362;-6.288;2023-03-03T12:31:33;6.30;;;5.35;;
42586;SDS011;28216;53.362;-6.288;2023-03-03T12:37:08;12.68;;;9.02;;
42586;SDS011;28216;53.362;-6.288;2023-03-03T12:47:54;14.50;;;11.27;;
42586;SDS011;28216;53.362;-6.288;2023-03-03T12:50:33;12.38;;;10.30;;
42586;SDS011;28216;53.362;-6.288;2023-03-03T12:59:08;17.23;;;11.75;;
42586;SDS011;28216;53.362;-6.288;2023-03-03T13:07:48;15.32;;;11.45;;
42586;SDS011;28216;53.362;-6.288;2023-03-03T13:10:20;7.50;;;4.50;;
42586;SDS011;28216;53.362;-6.288;2023-03-03T13:12:50;4.65;;;3.22;;
42586;SDS011;28216;53.362;-6.288;2023-03-03T13:15:27;3.05;;;2.47;;
42586;SDS011;28216;53.362;-6.288;2023-03-03T13:20:57;2.22;;;1.80;;
42586;SDS011;28216;53.362;-6.288;2023-03-03T13:29:18;2.28;;;1.30;;
42586;SDS011;28216;53.362;-6.288;2023-03-03T13:31:54;4.00;;;2.00;;
42586;SDS011;28216;53.362;-6.288;2023-03-03T13:37:13;3.85;;;1.92;;
42586;SDS011;28216;53.362;-6.288;2023-03-03T13:39:49;3.70;;;2.28;;
42586;SDS011;28216;53.362;-6.288;2023-03-03T13:44:45;2.72;;;1.25;;
42586;SDS011;28216;53.362;-6.288;2023-03-03T13:50:16;2.85;;;1.35;;
42586;SDS011;28216;53.362;-6.288;2023-03-03T13:59:13;2.00;;;1.38;;
42586;SDS011;28216;53.362;-6.288;2023-03-03T14:06:40;3.17;;;2.10;;
42586;SDS011;28216;53.362;-6.288;2023-03-03T14:12:09;1.17;;;1.08;;
42586;SDS011;28216;53.362;-6.288;2023-03-03T14:14:54;2.35;;;1.50;;
42586;SDS011;28216;53.362;-6.288;2023-03-03T14:17:40;1.75;;;1.50;;
42586;SDS011;28216;53.362;-6.288;2023-03-03T14:20:29;1.75;;;1.52;;
42586;SDS011;28216;53.362;-6.288;2023-03-03T14:23:00;2.53;;;1.52;;
42586;SDS011;28216;53.362;-6.288;2023-03-03T14:25:48;2.13;;;1.10;;
42586;SDS011;28216;53.362;-6.288;2023-03-03T14:28:20;1.20;;;1.10;;
42586;SDS011;28216;53.362;-6.288;2023-03-03T14:30:47;2.10;;;1.30;;
42586;SDS011;28216;53.362;-6.288;2023-03-03T14:33:18;3.20;;;1.10;;
42586;SDS011;28216;53.362;-6.288;2023-03-03T14:35:50;2.95;;;1.67;;
42586;SDS011;28216;53.362;-6.288;2023-03-03T14:38:43;4.22;;;2.50;;
42586;SDS011;28216;53.362;-6.288;2023-03-03T14:43:35;1.65;;;1.35;;
42586;SDS011;28216;53.362;-6.288;2023-03-03T14:48:54;2.22;;;1.35;;
42586;SDS011;28216;53.362;-6.288;2023-03-03T14:51:43;2.95;;;1.55;;
42586;SDS011;28216;53.362;-6.288;2023-03-03T14:54:22;3.15;;;1.30;;
42586;SDS011;28216;53.362;-6.288;2023-03-03T14:56:57;2.80;;;1.15;;
42586;SDS011;28216;53.362;-6.288;2023-03-03T14:59:32;5.38;;;1.60;;
42586;SDS011;28216;53.362;-6.288;2023-03-03T15:04:36;3.08;;;1.27;;
42586;SDS011;28216;53.362;-6.288;2023-03-03T15:07:14;1.17;;;0.98;;
42586;SDS011;28216;53.362;-6.288;2023-03-03T15:09:52;1.30;;;1.20;;
42586;SDS011;28216;53.362;-6.288;2023-03-03T15:14:51;1.98;;;1.23;;
42586;SDS011;28216;53.362;-6.288;2023-03-03T15:20:51;2.22;;;1.40;;
42586;SDS011;28216;53.362;-6.288;2023-03-03T15:31:27;4.57;;;1.70;;
42586;SDS011;28216;53.362;-6.288;2023-03-03T15:42:12;2.33;;;1.27;;
42586;SDS011;28216;53.362;-6.288;2023-03-03T15:45:03;3.28;;;1.25;;
42586;SDS011;28216;53.362;-6.288;2023-03-03T15:51:37;1.35;;;1.25;;
42586;SDS011;28216;53.362;-6.288;2023-03-03T15:58:37;1.52;;;1.20;;
42586;SDS011;28216;53.362;-6.288;2023-03-03T16:03:42;1.70;;;1.05;;
42586;SDS011;28216;53.362;-6.288;2023-03-03T16:09:26;1.95;;;1.15;;
42586;SDS011;28216;53.362;-6.288;2023-03-03T16:23:47;5.75;;;2.63;;
42586;SDS011;28216;53.362;-6.288;2023-03-03T16:31:55;4.65;;;2.00;;
42586;SDS011;28216;53.362;-6.288;2023-03-03T16:42:30;4.63;;;1.40;;
42586;SDS011;28216;53.362;-6.288;2023-03-03T16:47:32;2.53;;;1.20;;
42586;SDS011;28216;53.362;-6.288;2023-03-03T16:55:52;3.72;;;2.03;;
42586;SDS011;28216;53.362;-6.288;2023-03-03T17:09:24;3.00;;;1.75;;
42586;SDS011;28216;53.362;-6.288;2023-03-03T17:12:00;9.00;;;4.57;;
42586;SDS011;28216;53.362;-6.288;2023-03-03T17:20:06;7.38;;;4.07;;
42586;SDS011;28216;53.362;-6.288;2023-03-03T17:25:22;6.90;;;4.50;;
42586;SDS011;28216;53.362;-6.288;2023-03-03T17:30:46;6.00;;;2.92;;
42586;SDS011;28216;53.362;-6.288;2023-03-03T17:44:12;5.28;;;3.42;;
42586;SDS011;28216;53.362;-6.288;2023-03-03T17:55:18;4.03;;;2.90;;
42586;SDS011;28216;53.362;-6.288;2023-03-03T18:09:04;6.68;;;3.10;;
42586;SDS011;28216;53.362;-6.288;2023-03-03T18:14:27;7.25;;;2.65;;
42586;SDS011;28216;53.362;-6.288;2023-03-03T18:30:34;12.23;;;8.95;;
42586;SDS011;28216;53.362;-6.288;2023-03-03T18:35:26;3.67;;;2.25;;
42586;SDS011;28216;53.362;-6.288;2023-03-03T18:37:55;3.63;;;2.42;;
42586;SDS011;28216;53.362;-6.288;2023-03-03T18:42:57;4.65;;;2.78;;
42586;SDS011;28216;53.362;-6.288;2023-03-03T18:50:35;7.65;;;5.90;;
42586;SDS011;28216;53.362;-6.288;2023-03-03T18:53:17;6.15;;;5.53;;
42586;SDS011;28216;53.362;-6.288;2023-03-03T18:55:50;9.07;;;6.07;;
42586;SDS011;28216;53.362;-6.288;2023-03-03T18:58:26;10.13;;;7.35;;
42586;SDS011;28216;53.362;-6.288;2023-03-03T19:03:30;9.18;;;5.53;;
42586;SDS011;28216;53.362;-6.288;2023-03-03T19:06:01;8.80;;;5.50;;
42586;SDS011;28216;53.362;-6.288;2023-03-03T19:08:42;8.75;;;5.45;;
42586;SDS011;28216;53.362;-6.288;2023-03-03T19:11:35;11.10;;;7.00;;
42586;SDS011;28216;53.362;-6.288;2023-03-03T19:22:26;31.10;;;15.30;;
42586;SDS011;28216;53.362;-6.288;2023-03-03T19:36:05;459.42;;;190.25;;
42586;SDS011;28216;53.362;-6.288;2023-03-03T19:44:16;423.38;;;169.43;;
42586;SDS011;28216;53.362;-6.288;2023-03-03T19:54:46;23.17;;;13.48;;
42586;SDS011;28216;53.362;-6.288;2023-03-03T20:00:17;32.63;;;20.40;;
42586;SDS011;28216;53.362;-6.288;2023-03-03T20:11:15;9.18;;;5.53;;
42586;SDS011;28216;53.362;-6.288;2023-03-03T20:19:18;6.70;;;4.30;;
42586;SDS011;28216;53.362;-6.288;2023-03-03T20:25:07;8.85;;;5.72;;
42586;SDS011;28216;53.362;-6.288;2023-03-03T20:27:46;7.53;;;5.55;;
42586;SDS011;28216;53.362;-6.288;2023-03-03T20:36:27;9.48;;;5.50;;
42586;SDS011;28216;53.362;-6.288;2023-03-03T20:39:07;10.57;;;5.50;;
42586;SDS011;28216;53.362;-6.288;2023-03-03T20:41:49;9.95;;;5.85;;
42586;SDS011;28216;53.362;-6.288;2023-03-03T20:50:22;18.17;;;12.98;;
42586;SDS011;28216;53.362;-6.288;2023-03-03T20:58:42;12.82;;;7.45;;
42586;SDS011;28216;53.362;-6.288;2023-03-03T21:02:01;13.57;;;7.85;;
42586;SDS011;28216;53.362;-6.288;2023-03-03T21:04:20;13.95;;;7.80;;
42586;SDS011;28216;53.362;-6.288;2023-03-03T21:06:49;12.38;;;7.85;;
42586;SDS011;28216;53.362;-6.288;2023-03-03T21:09:28;11.57;;;7.28;;
42586;SDS011;28216;53.362;-6.288;2023-03-03T21:11:56;10.55;;;7.13;;
42586;SDS011;28216;53.362;-6.288;2023-03-03T21:14:28;12.27;;;8.90;;
42586;SDS011;28216;53.362;-6.288;2023-03-03T21:16:56;12.55;;;8.38;;
42586;SDS011;28216;53.362;-6.288;2023-03-03T21:19:33;13.65;;;8.32;;
42586;SDS011;28216;53.362;-6.288;2023-03-03T21:22:00;11.95;;;7.25;;
42586;SDS011;28216;53.362;-6.288;2023-03-03T21:24:45;10.02;;;7.00;;
42586;SDS011;28216;53.362;-6.288;2023-03-03T21:30:23;12.68;;;8.20;;
42586;SDS011;28216;53.362;-6.288;2023-03-03T21:36:43;13.38;;;8.18;;
42586;SDS011;28216;53.362;-6.288;2023-03-03T21:42:04;12.85;;;7.03;;
42586;SDS011;28216;53.362;-6.288;2023-03-03T21:44:41;14.00;;;8.55;;
42586;SDS011;28216;53.362;-6.288;2023-03-03T21:47:20;9.05;;;6.85;;
42586;SDS011;28216;53.362;-6.288;2023-03-03T21:49:48;7.63;;;6.70;;
42586;SDS011;28216;53.362;-6.288;2023-03-03T21:52:15;10.35;;;6.70;;
42586;SDS011;28216;53.362;-6.288;2023-03-03T21:54:43;12.75;;;8.70;;
42586;SDS011;28216;53.362;-6.288;2023-03-03T21:57:09;9.02;;;6.00;;
42586;SDS011;28216;53.362;-6.288;2023-03-03T21:59:35;5.68;;;4.30;;
42586;SDS011;28216;53.362;-6.288;2023-03-03T22:02:01;8.45;;;5.63;;
42586;SDS011;28216;53.362;-6.288;2023-03-03T22:04:27;10.68;;;7.38;;
42586;SDS011;28216;53.362;-6.288;2023-03-03T22:06:53;17.95;;;10.35;;
42586;SDS011;28216;53.362;-6.288;2023-03-03T22:09:19;15.45;;;10.63;;
42586;SDS011;28216;53.362;-6.288;2023-03-03T22:11:50;14.32;;;10.77;;
42586;SDS011;28216;53.362;-6.288;2023-03-03T22:14:16;13.60;;;9.73;;
42586;SDS011;28216;53.362;-6.288;2023-03-03T22:16:41;14.80;;;9.77;;